CheckWX is a tool to help pilots better visualize weather data.  It is not intended as a substitute for an official pre-flight weather briefing.

19:15:31 UTC

DABC METAR
Mohamed Boudiaf International Airport
Constantine, Algeria
Current

46 mins ago

DABC 261830Z 31011KT 9999 FEW016 FEW026TCU BKN033 13/11 Q1013
Observed
May-26 @ 18:30 UTC
Wind
  • 310° at 11 KTS
Visibility
10,000+ meters
Flight Rules
VFR
Cloud Levels
  • Few at 1,600' AGL
  • Few at 2,600' AGL
  • Broken at 3,300' AGL
Temperature
13°C / 55°F
Dewpoint
11°C / 52°F
Humidity
88%
Altimeter
29.91" Hg
Pressure
1012.92 hPa
Previous

1 hour ago

DABC 261800Z 31012KT 280V340 9999 FEW016 SCT026TCU BKN033 13/12 Q1013
Observed
May-26 @ 18:00 UTC
Wind
  • 310° at 12 KTS
Visibility
10,000+ meters
Flight Rules
VFR
Cloud Levels
  • Few at 1,600' AGL
  • Scattered at 2,600' AGL
  • Broken at 3,300' AGL
Temperature
13°C / 55°F
Dewpoint
12°C / 54°F
Humidity
94%
Altimeter
29.91" Hg
Pressure
1012.92 hPa
Previous

2 hours ago

DABC 261730Z 31014KT 7000 FEW013 FEW020TCU BKN026 14/12 Q1012
Observed
May-26 @ 17:30 UTC
Wind
  • 310° at 14 KTS
Visibility
7,001 meters
Flight Rules
MVFR
Cloud Levels
  • Few at 1,300' AGL
  • Few at 2,000' AGL
  • Broken at 2,600' AGL
Temperature
14°C / 57°F
Dewpoint
12°C / 54°F
Humidity
88%
Altimeter
29.88" Hg
Pressure
1011.92 hPa